Lake Junaluska, North Carolina
Current Conditions -  °F | °C
As of 2:54 PM on Sunday 23 Nov 2014 (Local Time) from KAVL Reporting Station
Moderate Rain Moderate Rain  
Wind Chill: 46°   Ceiling: 300
Heat Index: 46°   Visibility: 2mi
Dew Point: 45°   Wind: 0mph
Humidity: 96%   Direction: NA
Pressure: 29.92"   Gusts: NA
Location:  35.53°N, 82.98°W
Report Text: KAVL 231954Z 00000KT 2SM RA BR OVC003 08/07 A2992 RMK AO2 SLP128 P0020 T00780072
Loading
Personal Weather Stations






























Interactive Weather Map New forecast layout! Learn more

10-Day Weather Forecast

Advertisements
Track Severe Weather on mobile